Concord Township, Maine
Current Conditions -  °F | °C
As of 7:55 AM on Monday 22 Dec 2014 (Local Time) from KWVL Reporting Station
Overcast Overcast  
Wind Chill: 27°   Ceiling: 5000
Heat Index: 27°   Visibility: 10mi
Dew Point: 21°   Wind: 3mph
Humidity: 80%   Direction: 20°NNE
Pressure: 30.4"   Gusts: NA
Location:  45.1348°N, 69.8823°W
Report Text: KWVL 221255Z 02003KT 10SM FEW043 OVC050 M03/M06 A3040 RMK AO1
Loading
Personal Weather Stations






























Interactive Weather Map New forecast layout! Learn more

10-Day Weather Forecast

Advertisements
Track Severe Weather on mobile